sensor_id;sensor_type;location;lat;lon;timestamp;P1;durP1;ratioP1;P2;durP2;ratioP2
8702;SDS011;9002;42.708;23.186;2023-05-20T00:02:23;17.63;;;14.13;;
8702;SDS011;9002;42.708;23.186;2023-05-20T00:04:50;15.63;;;13.77;;
8702;SDS011;9002;42.708;23.186;2023-05-20T00:07:16;17.27;;;13.63;;
8702;SDS011;9002;42.708;23.186;2023-05-20T00:09:43;21.17;;;13.80;;
8702;SDS011;9002;42.708;23.186;2023-05-20T00:12:10;18.93;;;14.47;;
8702;SDS011;9002;42.708;23.186;2023-05-20T00:14:37;17.70;;;13.33;;
8702;SDS011;9002;42.708;23.186;2023-05-20T00:17:04;18.20;;;13.87;;
8702;SDS011;9002;42.708;23.186;2023-05-20T00:19:33;15.73;;;14.03;;
8702;SDS011;9002;42.708;23.186;2023-05-20T00:22:00;19.30;;;14.17;;
8702;SDS011;9002;42.708;23.186;2023-05-20T00:24:27;15.23;;;13.30;;
8702;SDS011;9002;42.708;23.186;2023-05-20T00:26:53;22.87;;;15.30;;
8702;SDS011;9002;42.708;23.186;2023-05-20T00:32:00;16.50;;;13.60;;
8702;SDS011;9002;42.708;23.186;2023-05-20T00:34:27;19.87;;;14.07;;
8702;SDS011;9002;42.708;23.186;2023-05-20T00:36:55;17.67;;;13.70;;
8702;SDS011;9002;42.708;23.186;2023-05-20T00:39:22;17.60;;;13.47;;
8702;SDS011;9002;42.708;23.186;2023-05-20T00:41:49;15.67;;;13.97;;
8702;SDS011;9002;42.708;23.186;2023-05-20T00:44:16;17.57;;;13.80;;
8702;SDS011;9002;42.708;23.186;2023-05-20T00:46:48;20.00;;;14.33;;
8702;SDS011;9002;42.708;23.186;2023-05-20T00:49:15;17.30;;;14.40;;
8702;SDS011;9002;42.708;23.186;2023-05-20T00:51:43;23.13;;;14.60;;
8702;SDS011;9002;42.708;23.186;2023-05-20T00:54:11;17.03;;;15.17;;
8702;SDS011;9002;42.708;23.186;2023-05-20T00:56:39;17.40;;;15.07;;
8702;SDS011;9002;42.708;23.186;2023-05-20T00:59:07;16.87;;;14.57;;
8702;SDS011;9002;42.708;23.186;2023-05-20T01:01:34;15.83;;;14.23;;
8702;SDS011;9002;42.708;23.186;2023-05-20T01:06:36;19.67;;;15.07;;
8702;SDS011;9002;42.708;23.186;2023-05-20T01:09:03;17.83;;;14.57;;
8702;SDS011;9002;42.708;23.186;2023-05-20T01:11:33;17.80;;;14.20;;
8702;SDS011;9002;42.708;23.186;2023-05-20T01:14:05;15.90;;;13.20;;
8702;SDS011;9002;42.708;23.186;2023-05-20T01:16:34;17.20;;;14.83;;
8702;SDS011;9002;42.708;23.186;2023-05-20T01:19:03;15.67;;;13.97;;
8702;SDS011;9002;42.708;23.186;2023-05-20T01:21:43;15.40;;;13.43;;
8702;SDS011;9002;42.708;23.186;2023-05-20T01:24:13;16.33;;;14.37;;
8702;SDS011;9002;42.708;23.186;2023-05-20T01:26:40;16.50;;;13.63;;
8702;SDS011;9002;42.708;23.186;2023-05-20T01:29:07;14.70;;;13.07;;
8702;SDS011;9002;42.708;23.186;2023-05-20T01:31:34;16.93;;;14.03;;
8702;SDS011;9002;42.708;23.186;2023-05-20T01:34:03;16.43;;;13.20;;
8702;SDS011;9002;42.708;23.186;2023-05-20T01:36:31;19.40;;;14.53;;
8702;SDS011;9002;42.708;23.186;2023-05-20T01:38:59;15.90;;;14.20;;
8702;SDS011;9002;42.708;23.186;2023-05-20T01:41:29;15.17;;;13.50;;
8702;SDS011;9002;42.708;23.186;2023-05-20T01:43:59;15.83;;;13.20;;
8702;SDS011;9002;42.708;23.186;2023-05-20T01:46:26;16.23;;;13.70;;
8702;SDS011;9002;42.708;23.186;2023-05-20T01:48:53;16.17;;;13.20;;
8702;SDS011;9002;42.708;23.186;2023-05-20T01:51:23;17.13;;;13.77;;
8702;SDS011;9002;42.708;23.186;2023-05-20T01:53:50;16.77;;;13.63;;
8702;SDS011;9002;42.708;23.186;2023-05-20T01:56:17;16.07;;;13.77;;
8702;SDS011;9002;42.708;23.186;2023-05-20T01:58:45;19.00;;;13.67;;
8702;SDS011;9002;42.708;23.186;2023-05-20T02:01:12;16.47;;;11.97;;
8702;SDS011;9002;42.708;23.186;2023-05-20T02:03:39;15.30;;;13.10;;
8702;SDS011;9002;42.708;23.186;2023-05-20T02:06:06;17.13;;;13.60;;
8702;SDS011;9002;42.708;23.186;2023-05-20T02:08:33;15.30;;;12.77;;
8702;SDS011;9002;42.708;23.186;2023-05-20T02:11:00;17.77;;;13.90;;
8702;SDS011;9002;42.708;23.186;2023-05-20T02:13:27;15.80;;;13.97;;
8702;SDS011;9002;42.708;23.186;2023-05-20T02:15:56;16.67;;;13.73;;
8702;SDS011;9002;42.708;23.186;2023-05-20T02:18:23;16.57;;;14.00;;
8702;SDS011;9002;42.708;23.186;2023-05-20T02:20:50;16.30;;;13.77;;
8702;SDS011;9002;42.708;23.186;2023-05-20T02:23:17;16.40;;;13.43;;
8702;SDS011;9002;42.708;23.186;2023-05-20T02:25:44;16.97;;;13.70;;
8702;SDS011;9002;42.708;23.186;2023-05-20T02:28:11;16.57;;;13.73;;
8702;SDS011;9002;42.708;23.186;2023-05-20T02:30:40;17.17;;;13.63;;
8702;SDS011;9002;42.708;23.186;2023-05-20T02:33:08;15.67;;;13.17;;
8702;SDS011;9002;42.708;23.186;2023-05-20T02:35:35;18.27;;;13.43;;
8702;SDS011;9002;42.708;23.186;2023-05-20T02:38:02;14.50;;;12.40;;
8702;SDS011;9002;42.708;23.186;2023-05-20T02:40:29;17.57;;;13.40;;
8702;SDS011;9002;42.708;23.186;2023-05-20T02:42:56;16.53;;;14.37;;
8702;SDS011;9002;42.708;23.186;2023-05-20T02:45:23;16.83;;;14.10;;
8702;SDS011;9002;42.708;23.186;2023-05-20T02:47:50;15.97;;;14.27;;
8702;SDS011;9002;42.708;23.186;2023-05-20T02:50:19;15.77;;;13.67;;
8702;SDS011;9002;42.708;23.186;2023-05-20T02:52:46;16.63;;;13.03;;
8702;SDS011;9002;42.708;23.186;2023-05-20T02:55:13;16.57;;;13.23;;
8702;SDS011;9002;42.708;23.186;2023-05-20T02:57:40;15.10;;;13.33;;
8702;SDS011;9002;42.708;23.186;2023-05-20T03:00:07;18.03;;;13.83;;
8702;SDS011;9002;42.708;23.186;2023-05-20T03:02:36;16.47;;;13.33;;
8702;SDS011;9002;42.708;23.186;2023-05-20T03:05:03;15.13;;;13.20;;
8702;SDS011;9002;42.708;23.186;2023-05-20T03:07:33;16.27;;;12.83;;
8702;SDS011;9002;42.708;23.186;2023-05-20T03:10:01;15.67;;;12.50;;
8702;SDS011;9002;42.708;23.186;2023-05-20T03:12:29;17.97;;;12.93;;
8702;SDS011;9002;42.708;23.186;2023-05-20T03:14:56;15.97;;;13.10;;
8702;SDS011;9002;42.708;23.186;2023-05-20T03:17:24;14.90;;;13.23;;
8702;SDS011;9002;42.708;23.186;2023-05-20T03:19:51;18.60;;;14.43;;
8702;SDS011;9002;42.708;23.186;2023-05-20T03:22:18;17.50;;;13.23;;
8702;SDS011;9002;42.708;23.186;2023-05-20T03:24:47;18.83;;;13.83;;
8702;SDS011;9002;42.708;23.186;2023-05-20T03:27:14;18.00;;;14.47;;
8702;SDS011;9002;42.708;23.186;2023-05-20T03:29:41;17.30;;;14.53;;
8702;SDS011;9002;42.708;23.186;2023-05-20T03:32:08;19.60;;;14.23;;
8702;SDS011;9002;42.708;23.186;2023-05-20T03:34:35;17.40;;;14.23;;
8702;SDS011;9002;42.708;23.186;2023-05-20T03:37:02;16.60;;;14.50;;
8702;SDS011;9002;42.708;23.186;2023-05-20T03:39:29;16.57;;;13.97;;
8702;SDS011;9002;42.708;23.186;2023-05-20T03:41:57;16.00;;;13.93;;
8702;SDS011;9002;42.708;23.186;2023-05-20T03:44:24;16.70;;;14.50;;
8702;SDS011;9002;42.708;23.186;2023-05-20T03:46:51;17.47;;;12.93;;
8702;SDS011;9002;42.708;23.186;2023-05-20T03:49:18;17.13;;;14.17;;
8702;SDS011;9002;42.708;23.186;2023-05-20T03:51:45;19.10;;;13.87;;
8702;SDS011;9002;42.708;23.186;2023-05-20T03:54:12;23.17;;;17.40;;
8702;SDS011;9002;42.708;23.186;2023-05-20T03:56:40;23.17;;;18.97;;
8702;SDS011;9002;42.708;23.186;2023-05-20T03:59:09;17.97;;;15.43;;
8702;SDS011;9002;42.708;23.186;2023-05-20T04:01:36;18.23;;;14.37;;
8702;SDS011;9002;42.708;23.186;2023-05-20T04:04:03;16.30;;;13.90;;
8702;SDS011;9002;42.708;23.186;2023-05-20T04:06:31;16.40;;;14.53;;
8702;SDS011;9002;42.708;23.186;2023-05-20T04:08:58;17.90;;;14.73;;
8702;SDS011;9002;42.708;23.186;2023-05-20T04:11:25;19.40;;;14.57;;
8702;SDS011;9002;42.708;23.186;2023-05-20T04:13:52;20.37;;;14.33;;
8702;SDS011;9002;42.708;23.186;2023-05-20T04:16:21;23.07;;;15.27;;
8702;SDS011;9002;42.708;23.186;2023-05-20T04:18:48;19.63;;;15.27;;
8702;SDS011;9002;42.708;23.186;2023-05-20T04:21:16;17.83;;;14.47;;
8702;SDS011;9002;42.708;23.186;2023-05-20T04:23:44;18.63;;;16.43;;
8702;SDS011;9002;42.708;23.186;2023-05-20T04:26:11;20.47;;;16.00;;
8702;SDS011;9002;42.708;23.186;2023-05-20T04:28:38;22.43;;;17.73;;
8702;SDS011;9002;42.708;23.186;2023-05-20T04:31:06;17.13;;;15.13;;
8702;SDS011;9002;42.708;23.186;2023-05-20T04:33:36;17.47;;;15.10;;
8702;SDS011;9002;42.708;23.186;2023-05-20T04:36:03;22.80;;;16.40;;
8702;SDS011;9002;42.708;23.186;2023-05-20T04:38:32;21.60;;;16.73;;
8702;SDS011;9002;42.708;23.186;2023-05-20T04:41:00;21.27;;;15.77;;
8702;SDS011;9002;42.708;23.186;2023-05-20T04:43:27;20.10;;;15.97;;
8702;SDS011;9002;42.708;23.186;2023-05-20T04:45:55;23.07;;;16.17;;
8702;SDS011;9002;42.708;23.186;2023-05-20T04:48:23;22.93;;;17.23;;
8702;SDS011;9002;42.708;23.186;2023-05-20T04:50:51;22.33;;;17.47;;
8702;SDS011;9002;42.708;23.186;2023-05-20T04:53:19;25.13;;;17.17;;
8702;SDS011;9002;42.708;23.186;2023-05-20T04:55:47;23.13;;;18.13;;
8702;SDS011;9002;42.708;23.186;2023-05-20T04:58:18;22.83;;;17.73;;
8702;SDS011;9002;42.708;23.186;2023-05-20T05:00:48;22.63;;;17.63;;
8702;SDS011;9002;42.708;23.186;2023-05-20T05:03:16;26.30;;;21.17;;
8702;SDS011;9002;42.708;23.186;2023-05-20T05:05:44;24.53;;;18.70;;
8702;SDS011;9002;42.708;23.186;2023-05-20T05:08:12;24.00;;;18.87;;
8702;SDS011;9002;42.708;23.186;2023-05-20T05:10:39;25.00;;;19.77;;
8702;SDS011;9002;42.708;23.186;2023-05-20T05:13:06;22.20;;;19.03;;
8702;SDS011;9002;42.708;23.186;2023-05-20T05:15:33;26.60;;;19.20;;
8702;SDS011;9002;42.708;23.186;2023-05-20T05:18:00;23.83;;;19.63;;
8702;SDS011;9002;42.708;23.186;2023-05-20T05:20:27;24.37;;;20.27;;
8702;SDS011;9002;42.708;23.186;2023-05-20T05:22:54;26.70;;;20.67;;
8702;SDS011;9002;42.708;23.186;2023-05-20T05:25:22;24.10;;;19.07;;
8702;SDS011;9002;42.708;23.186;2023-05-20T05:27:49;22.30;;;19.00;;
8702;SDS011;9002;42.708;23.186;2023-05-20T05:30:16;25.00;;;18.93;;
8702;SDS011;9002;42.708;23.186;2023-05-20T05:32:43;22.83;;;19.57;;
8702;SDS011;9002;42.708;23.186;2023-05-20T05:35:10;24.90;;;19.90;;
8702;SDS011;9002;42.708;23.186;2023-05-20T05:37:37;25.47;;;19.73;;
8702;SDS011;9002;42.708;23.186;2023-05-20T05:40:05;21.10;;;18.90;;
8702;SDS011;9002;42.708;23.186;2023-05-20T05:42:34;22.77;;;19.80;;
8702;SDS011;9002;42.708;23.186;2023-05-20T05:45:01;21.67;;;18.90;;
8702;SDS011;9002;42.708;23.186;2023-05-20T05:47:28;23.47;;;17.80;;
8702;SDS011;9002;42.708;23.186;2023-05-20T05:49:56;23.83;;;17.97;;
8702;SDS011;9002;42.708;23.186;2023-05-20T05:52:24;21.83;;;18.37;;
8702;SDS011;9002;42.708;23.186;2023-05-20T05:54:52;23.17;;;16.97;;
8702;SDS011;9002;42.708;23.186;2023-05-20T05:57:19;22.93;;;18.03;;
8702;SDS011;9002;42.708;23.186;2023-05-20T05:59:47;22.47;;;17.77;;
8702;SDS011;9002;42.708;23.186;2023-05-20T06:02:14;18.60;;;16.67;;
8702;SDS011;9002;42.708;23.186;2023-05-20T06:04:41;20.83;;;17.13;;
8702;SDS011;9002;42.708;23.186;2023-05-20T06:07:08;20.63;;;16.90;;
8702;SDS011;9002;42.708;23.186;2023-05-20T06:09:35;19.47;;;16.40;;
8702;SDS011;9002;42.708;23.186;2023-05-20T06:12:03;17.73;;;15.33;;
8702;SDS011;9002;42.708;23.186;2023-05-20T06:14:30;19.57;;;16.03;;
8702;SDS011;9002;42.708;23.186;2023-05-20T06:16:59;15.50;;;13.93;;
8702;SDS011;9002;42.708;23.186;2023-05-20T06:19:26;18.97;;;13.87;;
8702;SDS011;9002;42.708;23.186;2023-05-20T06:21:53;15.17;;;12.83;;
8702;SDS011;9002;42.708;23.186;2023-05-20T06:24:20;14.80;;;13.37;;
8702;SDS011;9002;42.708;23.186;2023-05-20T06:26:47;16.60;;;12.33;;
8702;SDS011;9002;42.708;23.186;2023-05-20T06:29:14;13.47;;;11.90;;
8702;SDS011;9002;42.708;23.186;2023-05-20T06:31:41;13.20;;;11.10;;
8702;SDS011;9002;42.708;23.186;2023-05-20T06:34:10;14.43;;;12.67;;
8702;SDS011;9002;42.708;23.186;2023-05-20T06:36:37;13.40;;;11.80;;
8702;SDS011;9002;42.708;23.186;2023-05-20T06:39:04;12.70;;;10.87;;
8702;SDS011;9002;42.708;23.186;2023-05-20T06:41:36;17.87;;;11.57;;
8702;SDS011;9002;42.708;23.186;2023-05-20T06:44:04;13.20;;;11.30;;
8702;SDS011;9002;42.708;23.186;2023-05-20T06:46:31;15.90;;;11.30;;
8702;SDS011;9002;42.708;23.186;2023-05-20T06:48:58;11.07;;;9.90;;
8702;SDS011;9002;42.708;23.186;2023-05-20T06:51:26;11.80;;;9.40;;
8702;SDS011;9002;42.708;23.186;2023-05-20T06:53:53;12.13;;;8.80;;
8702;SDS011;9002;42.708;23.186;2023-05-20T06:56:20;11.77;;;9.80;;
8702;SDS011;9002;42.708;23.186;2023-05-20T06:58:47;10.37;;;8.80;;
8702;SDS011;9002;42.708;23.186;2023-05-20T07:01:14;10.80;;;8.97;;
8702;SDS011;9002;42.708;23.186;2023-05-20T07:03:41;9.30;;;8.30;;
8702;SDS011;9002;42.708;23.186;2023-05-20T07:06:08;10.47;;;8.60;;
8702;SDS011;9002;42.708;23.186;2023-05-20T07:08:36;13.63;;;8.77;;
8702;SDS011;9002;42.708;23.186;2023-05-20T07:11:03;8.97;;;8.10;;
8702;SDS011;9002;42.708;23.186;2023-05-20T07:13:31;9.90;;;7.97;;
8702;SDS011;9002;42.708;23.186;2023-05-20T07:15:58;11.70;;;7.50;;
8702;SDS011;9002;42.708;23.186;2023-05-20T07:18:25;10.10;;;7.40;;
8702;SDS011;9002;42.708;23.186;2023-05-20T07:20:52;8.23;;;7.33;;
8702;SDS011;9002;42.708;23.186;2023-05-20T07:23:21;10.97;;;7.90;;
8702;SDS011;9002;42.708;23.186;2023-05-20T07:25:49;9.40;;;7.33;;
8702;SDS011;9002;42.708;23.186;2023-05-20T07:28:16;9.50;;;7.57;;
8702;SDS011;9002;42.708;23.186;2023-05-20T07:30:43;10.97;;;8.70;;
8702;SDS011;9002;42.708;23.186;2023-05-20T07:33:14;8.50;;;7.50;;
8702;SDS011;9002;42.708;23.186;2023-05-20T07:35:41;10.93;;;7.80;;
8702;SDS011;9002;42.708;23.186;2023-05-20T07:38:09;8.40;;;7.50;;
8702;SDS011;9002;42.708;23.186;2023-05-20T07:40:38;10.53;;;9.43;;
8702;SDS011;9002;42.708;23.186;2023-05-20T07:43:07;7.83;;;7.03;;
8702;SDS011;9002;42.708;23.186;2023-05-20T07:45:35;9.03;;;7.40;;
8702;SDS011;9002;42.708;23.186;2023-05-20T07:48:02;7.70;;;6.90;;
8702;SDS011;9002;42.708;23.186;2023-05-20T07:50:29;9.57;;;6.83;;
8702;SDS011;9002;42.708;23.186;2023-05-20T07:52:56;9.80;;;7.10;;
8702;SDS011;9002;42.708;23.186;2023-05-20T07:55:23;10.50;;;7.83;;
8702;SDS011;9002;42.708;23.186;2023-05-20T07:57:50;10.87;;;7.30;;
8702;SDS011;9002;42.708;23.186;2023-05-20T08:02:53;11.17;;;7.53;;
8702;SDS011;9002;42.708;23.186;2023-05-20T08:05:20;8.50;;;7.60;;
8702;SDS011;9002;42.708;23.186;2023-05-20T08:07:47;8.37;;;7.57;;
8702;SDS011;9002;42.708;23.186;2023-05-20T08:10:14;8.00;;;7.20;;
8702;SDS011;9002;42.708;23.186;2023-05-20T08:12:41;9.80;;;8.27;;
8702;SDS011;9002;42.708;23.186;2023-05-20T08:15:08;10.77;;;7.93;;
8702;SDS011;9002;42.708;23.186;2023-05-20T08:17:36;8.87;;;7.97;;
8702;SDS011;9002;42.708;23.186;2023-05-20T08:20:06;8.80;;;7.90;;
8702;SDS011;9002;42.708;23.186;2023-05-20T08:22:34;9.50;;;8.30;;
8702;SDS011;9002;42.708;23.186;2023-05-20T08:25:02;10.83;;;8.00;;
8702;SDS011;9002;42.708;23.186;2023-05-20T08:27:29;9.13;;;8.07;;
8702;SDS011;9002;42.708;23.186;2023-05-20T08:29:56;9.90;;;8.03;;
8702;SDS011;9002;42.708;23.186;2023-05-20T08:32:23;10.70;;;8.10;;
8702;SDS011;9002;42.708;23.186;2023-05-20T08:37:27;8.30;;;7.40;;
8702;SDS011;9002;42.708;23.186;2023-05-20T08:39:54;8.83;;;7.67;;
8702;SDS011;9002;42.708;23.186;2023-05-20T08:42:21;8.77;;;7.87;;
8702;SDS011;9002;42.708;23.186;2023-05-20T08:44:49;10.13;;;7.63;;
8702;SDS011;9002;42.708;23.186;2023-05-20T08:47:18;9.03;;;7.70;;
8702;SDS011;9002;42.708;23.186;2023-05-20T08:49:46;9.03;;;7.50;;
8702;SDS011;9002;42.708;23.186;2023-05-20T08:52:13;9.90;;;8.90;;
8702;SDS011;9002;42.708;23.186;2023-05-20T08:54:45;12.77;;;8.13;;
8702;SDS011;9002;42.708;23.186;2023-05-20T08:57:13;7.97;;;7.27;;
8702;SDS011;9002;42.708;23.186;2023-05-20T08:59:41;8.40;;;7.50;;
8702;SDS011;9002;42.708;23.186;2023-05-20T09:02:09;8.77;;;7.80;;
8702;SDS011;9002;42.708;23.186;2023-05-20T09:04:36;8.40;;;7.53;;
8702;SDS011;9002;42.708;23.186;2023-05-20T09:07:03;8.00;;;7.23;;
8702;SDS011;9002;42.708;23.186;2023-05-20T09:09:31;9.13;;;7.67;;
8702;SDS011;9002;42.708;23.186;2023-05-20T09:12:00;8.43;;;7.50;;
8702;SDS011;9002;42.708;23.186;2023-05-20T09:14:28;8.30;;;7.40;;
8702;SDS011;9002;42.708;23.186;2023-05-20T09:16:55;10.80;;;7.70;;
8702;SDS011;9002;42.708;23.186;2023-05-20T09:19:22;8.80;;;7.57;;
8702;SDS011;9002;42.708;23.186;2023-05-20T09:21:50;8.87;;;8.00;;
8702;SDS011;9002;42.708;23.186;2023-05-20T09:24:21;8.93;;;8.03;;
8702;SDS011;9002;42.708;23.186;2023-05-20T09:26:50;9.40;;;8.50;;
8702;SDS011;9002;42.708;23.186;2023-05-20T09:29:18;8.70;;;7.80;;
8702;SDS011;9002;42.708;23.186;2023-05-20T09:31:46;8.90;;;8.00;;
8702;SDS011;9002;42.708;23.186;2023-05-20T09:34:13;11.43;;;9.47;;
8702;SDS011;9002;42.708;23.186;2023-05-20T09:36:40;9.07;;;6.97;;
8702;SDS011;9002;42.708;23.186;2023-05-20T09:39:10;9.63;;;8.00;;
8702;SDS011;9002;42.708;23.186;2023-05-20T09:41:42;8.67;;;7.77;;
8702;SDS011;9002;42.708;23.186;2023-05-20T09:44:19;9.30;;;7.97;;
8702;SDS011;9002;42.708;23.186;2023-05-20T09:46:47;8.50;;;7.70;;
8702;SDS011;9002;42.708;23.186;2023-05-20T09:51:58;9.87;;;7.80;;
8702;SDS011;9002;42.708;23.186;2023-05-20T09:54:28;9.90;;;7.37;;
8702;SDS011;9002;42.708;23.186;2023-05-20T09:56:55;8.37;;;7.53;;
8702;SDS011;9002;42.708;23.186;2023-05-20T09:59:26;7.93;;;6.90;;
8702;SDS011;9002;42.708;23.186;2023-05-20T10:01:55;8.50;;;7.60;;
8702;SDS011;9002;42.708;23.186;2023-05-20T10:04:22;8.63;;;7.80;;
8702;SDS011;9002;42.708;23.186;2023-05-20T10:06:59;8.53;;;7.20;;
8702;SDS011;9002;42.708;23.186;2023-05-20T10:09:48;9.67;;;7.77;;
8702;SDS011;9002;42.708;23.186;2023-05-20T10:12:25;8.97;;;8.10;;
8702;SDS011;9002;42.708;23.186;2023-05-20T10:15:03;7.97;;;7.17;;
8702;SDS011;9002;42.708;23.186;2023-05-20T10:17:38;8.87;;;7.60;;
8702;SDS011;9002;42.708;23.186;2023-05-20T10:20:10;8.20;;;7.50;;
8702;SDS011;9002;42.708;23.186;2023-05-20T10:22:38;8.37;;;7.50;;
8702;SDS011;9002;42.708;23.186;2023-05-20T10:25:06;8.37;;;7.47;;
8702;SDS011;9002;42.708;23.186;2023-05-20T10:27:41;8.47;;;6.23;;
8702;SDS011;9002;42.708;23.186;2023-05-20T10:30:20;7.70;;;5.87;;
8702;SDS011;9002;42.708;23.186;2023-05-20T10:32:48;6.33;;;5.70;;
8702;SDS011;9002;42.708;23.186;2023-05-20T10:35:20;7.20;;;6.50;;
8702;SDS011;9002;42.708;23.186;2023-05-20T10:37:50;6.40;;;5.80;;
8702;SDS011;9002;42.708;23.186;2023-05-20T10:40:18;9.57;;;5.97;;
8702;SDS011;9002;42.708;23.186;2023-05-20T10:42:46;6.63;;;6.03;;
8702;SDS011;9002;42.708;23.186;2023-05-20T10:45:24;6.80;;;6.13;;
8702;SDS011;9002;42.708;23.186;2023-05-20T10:47:53;8.23;;;6.07;;
8702;SDS011;9002;42.708;23.186;2023-05-20T10:50:26;7.60;;;6.37;;
8702;SDS011;9002;42.708;23.186;2023-05-20T10:52:54;6.63;;;5.80;;
8702;SDS011;9002;42.708;23.186;2023-05-20T10:55:33;5.67;;;5.17;;
8702;SDS011;9002;42.708;23.186;2023-05-20T10:58:02;6.43;;;5.67;;
8702;SDS011;9002;42.708;23.186;2023-05-20T11:00:30;7.10;;;6.13;;
8702;SDS011;9002;42.708;23.186;2023-05-20T11:02:59;6.43;;;5.77;;
8702;SDS011;9002;42.708;23.186;2023-05-20T11:05:27;7.33;;;6.27;;
8702;SDS011;9002;42.708;23.186;2023-05-20T11:08:05;7.50;;;5.97;;
8702;SDS011;9002;42.708;23.186;2023-05-20T11:10:33;7.40;;;5.97;;
8702;SDS011;9002;42.708;23.186;2023-05-20T11:13:01;10.17;;;7.20;;
8702;SDS011;9002;42.708;23.186;2023-05-20T11:15:30;7.67;;;6.27;;
8702;SDS011;9002;42.708;23.186;2023-05-20T11:18:00;6.90;;;6.20;;
8702;SDS011;9002;42.708;23.186;2023-05-20T11:20:44;7.40;;;5.93;;
8702;SDS011;9002;42.708;23.186;2023-05-20T11:23:12;7.50;;;6.60;;
8702;SDS011;9002;42.708;23.186;2023-05-20T11:25:40;7.10;;;6.10;;
8702;SDS011;9002;42.708;23.186;2023-05-20T11:28:08;9.00;;;7.10;;
8702;SDS011;9002;42.708;23.186;2023-05-20T11:30:39;7.47;;;6.77;;
8702;SDS011;9002;42.708;23.186;2023-05-20T11:33:06;9.07;;;6.93;;
8702;SDS011;9002;42.708;23.186;2023-05-20T11:35:43;8.07;;;7.10;;
8702;SDS011;9002;42.708;23.186;2023-05-20T11:38:10;7.83;;;7.03;;
8702;SDS011;9002;42.708;23.186;2023-05-20T11:40:41;8.67;;;6.00;;
8702;SDS011;9002;42.708;23.186;2023-05-20T11:43:09;7.30;;;6.70;;
8702;SDS011;9002;42.708;23.186;2023-05-20T11:45:39;8.73;;;7.07;;
8702;SDS011;9002;42.708;23.186;2023-05-20T11:48:07;7.10;;;6.23;;
8702;SDS011;9002;42.708;23.186;2023-05-20T11:50:36;7.17;;;6.27;;
8702;SDS011;9002;42.708;23.186;2023-05-20T11:53:05;9.23;;;6.10;;
8702;SDS011;9002;42.708;23.186;2023-05-20T11:55:33;7.17;;;6.20;;
8702;SDS011;9002;42.708;23.186;2023-05-20T11:58:09;7.53;;;6.40;;
8702;SDS011;9002;42.708;23.186;2023-05-20T12:00:36;9.20;;;7.00;;
8702;SDS011;9002;42.708;23.186;2023-05-20T12:03:04;9.60;;;6.53;;
8702;SDS011;9002;42.708;23.186;2023-05-20T12:05:31;7.40;;;6.13;;
8702;SDS011;9002;42.708;23.186;2023-05-20T12:07:58;6.57;;;5.90;;
8702;SDS011;9002;42.708;23.186;2023-05-20T12:10:25;8.43;;;6.80;;
8702;SDS011;9002;42.708;23.186;2023-05-20T12:12:52;9.60;;;7.10;;
8702;SDS011;9002;42.708;23.186;2023-05-20T12:15:19;6.80;;;6.20;;
8702;SDS011;9002;42.708;23.186;2023-05-20T12:17:47;8.00;;;6.43;;
8702;SDS011;9002;42.708;23.186;2023-05-20T12:20:16;7.20;;;6.60;;
8702;SDS011;9002;42.708;23.186;2023-05-20T12:22:46;8.70;;;6.43;;
8702;SDS011;9002;42.708;23.186;2023-05-20T12:25:14;8.90;;;7.07;;
8702;SDS011;9002;42.708;23.186;2023-05-20T12:27:42;7.80;;;6.93;;
8702;SDS011;9002;42.708;23.186;2023-05-20T12:30:13;7.10;;;6.50;;
8702;SDS011;9002;42.708;23.186;2023-05-20T12:32:42;7.60;;;6.70;;
8702;SDS011;9002;42.708;23.186;2023-05-20T12:35:09;6.50;;;5.90;;
8702;SDS011;9002;42.708;23.186;2023-05-20T12:37:38;10.57;;;7.00;;
8702;SDS011;9002;42.708;23.186;2023-05-20T12:40:07;9.27;;;6.23;;
8702;SDS011;9002;42.708;23.186;2023-05-20T12:42:35;7.10;;;5.93;;
8702;SDS011;9002;42.708;23.186;2023-05-20T12:45:03;7.23;;;5.27;;
8702;SDS011;9002;42.708;23.186;2023-05-20T12:47:31;5.53;;;3.87;;
8702;SDS011;9002;42.708;23.186;2023-05-20T12:49:59;5.37;;;4.13;;
8702;SDS011;9002;42.708;23.186;2023-05-20T12:52:26;5.63;;;3.90;;
8702;SDS011;9002;42.708;23.186;2023-05-20T12:54:55;4.63;;;3.20;;
8702;SDS011;9002;42.708;23.186;2023-05-20T12:57:22;3.80;;;3.40;;
8702;SDS011;9002;42.708;23.186;2023-05-20T12:59:49;5.90;;;4.00;;
8702;SDS011;9002;42.708;23.186;2023-05-20T13:02:16;4.20;;;3.90;;
8702;SDS011;9002;42.708;23.186;2023-05-20T13:04:44;4.27;;;3.87;;
8702;SDS011;9002;42.708;23.186;2023-05-20T13:07:11;6.13;;;4.00;;
8702;SDS011;9002;42.708;23.186;2023-05-20T13:09:38;4.73;;;4.23;;
8702;SDS011;9002;42.708;23.186;2023-05-20T13:12:07;4.57;;;3.90;;
8702;SDS011;9002;42.708;23.186;2023-05-20T13:14:34;5.00;;;4.50;;
8702;SDS011;9002;42.708;23.186;2023-05-20T13:17:01;4.70;;;4.30;;
8702;SDS011;9002;42.708;23.186;2023-05-20T13:19:28;5.20;;;4.70;;
8702;SDS011;9002;42.708;23.186;2023-05-20T13:21:55;5.00;;;4.23;;
8702;SDS011;9002;42.708;23.186;2023-05-20T13:24:23;4.77;;;4.37;;
8702;SDS011;9002;42.708;23.186;2023-05-20T13:26:50;6.53;;;5.30;;
8702;SDS011;9002;42.708;23.186;2023-05-20T13:29:18;7.87;;;4.83;;
8702;SDS011;9002;42.708;23.186;2023-05-20T13:31:45;5.90;;;4.47;;
8702;SDS011;9002;42.708;23.186;2023-05-20T13:34:13;5.10;;;4.57;;
8702;SDS011;9002;42.708;23.186;2023-05-20T13:36:40;4.40;;;3.87;;
8702;SDS011;9002;42.708;23.186;2023-05-20T13:39:07;6.37;;;4.63;;
8702;SDS011;9002;42.708;23.186;2023-05-20T13:41:34;5.20;;;4.80;;
8702;SDS011;9002;42.708;23.186;2023-05-20T13:44:01;6.33;;;4.73;;
8702;SDS011;9002;42.708;23.186;2023-05-20T13:46:30;5.43;;;4.90;;
8702;SDS011;9002;42.708;23.186;2023-05-20T13:48:57;5.40;;;4.90;;
8702;SDS011;9002;42.708;23.186;2023-05-20T13:51:23;5.17;;;4.70;;
8702;SDS011;9002;42.708;23.186;2023-05-20T13:53:51;5.83;;;4.90;;
8702;SDS011;9002;42.708;23.186;2023-05-20T13:56:18;5.63;;;5.13;;
8702;SDS011;9002;42.708;23.186;2023-05-20T13:58:45;5.40;;;4.90;;
8702;SDS011;9002;42.708;23.186;2023-05-20T14:01:12;5.93;;;4.97;;
8702;SDS011;9002;42.708;23.186;2023-05-20T14:03:41;6.50;;;5.13;;
8702;SDS011;9002;42.708;23.186;2023-05-20T14:06:08;5.63;;;4.90;;
8702;SDS011;9002;42.708;23.186;2023-05-20T14:08:35;5.17;;;4.77;;
8702;SDS011;9002;42.708;23.186;2023-05-20T14:11:01;5.63;;;5.13;;
8702;SDS011;9002;42.708;23.186;2023-05-20T14:13:28;5.37;;;4.97;;
8702;SDS011;9002;42.708;23.186;2023-05-20T14:15:55;6.30;;;5.77;;
8702;SDS011;9002;42.708;23.186;2023-05-20T14:18:22;5.53;;;5.03;;
8702;SDS011;9002;42.708;23.186;2023-05-20T14:20:50;5.43;;;5.00;;
8702;SDS011;9002;42.708;23.186;2023-05-20T14:23:17;5.27;;;4.87;;
8702;SDS011;9002;42.708;23.186;2023-05-20T14:25:44;5.60;;;5.20;;
8702;SDS011;9002;42.708;23.186;2023-05-20T14:28:10;5.13;;;4.70;;
8702;SDS011;9002;42.708;23.186;2023-05-20T14:30:37;5.73;;;5.20;;
8702;SDS011;9002;42.708;23.186;2023-05-20T14:33:04;7.37;;;4.93;;
8702;SDS011;9002;42.708;23.186;2023-05-20T14:35:31;6.00;;;5.50;;
8702;SDS011;9002;42.708;23.186;2023-05-20T14:37:59;6.00;;;5.47;;
8702;SDS011;9002;42.708;23.186;2023-05-20T14:40:26;6.07;;;5.47;;
8702;SDS011;9002;42.708;23.186;2023-05-20T14:42:53;6.57;;;5.97;;
8702;SDS011;9002;42.708;23.186;2023-05-20T14:45:19;6.10;;;5.50;;
8702;SDS011;9002;42.708;23.186;2023-05-20T14:47:46;6.87;;;6.27;;
8702;SDS011;9002;42.708;23.186;2023-05-20T14:50:13;7.43;;;6.73;;
8702;SDS011;9002;42.708;23.186;2023-05-20T14:52:40;7.63;;;6.83;;
8702;SDS011;9002;42.708;23.186;2023-05-20T14:55:09;7.67;;;6.90;;
8702;SDS011;9002;42.708;23.186;2023-05-20T14:57:35;7.67;;;6.97;;
8702;SDS011;9002;42.708;23.186;2023-05-20T15:00:02;8.63;;;6.93;;
8702;SDS011;9002;42.708;23.186;2023-05-20T15:02:30;8.53;;;7.27;;
8702;SDS011;9002;42.708;23.186;2023-05-20T15:04:56;7.47;;;6.87;;
8702;SDS011;9002;42.708;23.186;2023-05-20T15:07:23;7.33;;;6.63;;